Time;durP1;ratioP1;P1;durP2;ratioP2;P2;SDS_P1;SDS_P2;PMS_P1;PMS_P2;Temp;Humidity;BMP_temperature;BMP_pressure;BME280_temperature;BME280_humidity;BME280_pressure;Samples;Min_cycle;Max_cycle;Signal;HPM_P1;HPM_P2
2022/05/19 00:00:01;;;;;;;4.70;2.83;;;;;;;19.07;61.89;100149.69;12205799;19;20010;-83
2022/05/19 00:04:34;;;;;;;5.28;3.08;;;;;;;19.07;62.27;100158.06;12191960;19;20145;-82
2022/05/19 00:08:49;;;;;;;7.60;3.00;;;;;;;19.03;62.98;100153.34;12196930;19;20018;-82
2022/05/19 00:13:12;;;;;;;5.93;3.03;;;;;;;18.98;62.78;100151.47;12178124;19;20010;-82
2022/05/19 00:17:15;;;;;;;4.23;2.80;;;;;;;18.94;63.08;100150.38;12189301;19;20706;-83
2022/05/19 00:21:17;;;;;;;6.95;3.10;;;;;;;18.88;62.84;100144.03;12191794;19;20391;-82
2022/05/19 00:25:21;;;;;;;4.47;2.90;;;;;;;18.84;62.95;100150.50;12168996;19;20741;-82
2022/05/19 00:34:24;;;;;;;4.65;2.92;;;;;;;18.73;63.30;100138.63;12187873;19;20035;-82
2022/05/19 00:38:54;;;;;;;6.72;3.00;;;;;;;18.71;63.36;100145.59;12196777;19;20027;-83
2022/05/19 00:47:54;;;;;;;4.28;3.13;;;;;;;18.61;63.50;100135.38;12197144;19;20011;-82
2022/05/19 00:52:26;;;;;;;4.55;2.75;;;;;;;18.57;63.85;100131.53;12196575;19;20010;-81
2022/05/19 00:57:15;;;;;;;4.20;3.17;;;;;;;18.51;64.22;100129.91;12222259;19;20494;-82
2022/05/19 01:01:49;;;;;;;5.28;2.50;;;;;;;18.44;63.84;100130.25;12202577;19;20009;-81
2022/05/19 01:12:26;;;;;;;6.03;3.13;;;;;;;18.28;65.19;100132.34;12202676;19;20131;-83
2022/05/19 01:17:11;;;;;;;;;;;;;;;18.18;64.69;100136.06;12166991;19;20400;-81
2022/05/19 01:21:31;;;;;;;6.68;2.78;;;;;;;18.15;64.72;100122.72;12203847;19;19928;-82
2022/05/19 01:26:12;;;;;;;5.43;2.72;;;;;;;18.10;64.51;100119.97;12198747;19;20036;-82
2022/05/19 01:30:14;;;;;;;4.13;2.67;;;;;;;18.07;64.23;100123.34;12199109;19;20028;-82
2022/05/19 01:34:20;;;;;;;4.18;2.70;;;;;;;18.03;63.94;100113.91;12178456;19;20019;-82
2022/05/19 01:38:32;;;;;;;5.78;2.80;;;;;;;18.01;64.60;100115.31;12205156;19;20713;-83
2022/05/19 01:43:10;;;;;;;3.92;2.65;;;;;;;17.96;64.12;100107.81;12204599;19;20127;-82
2022/05/19 01:47:58;;;;;;;4.78;2.70;;;;;;;17.90;64.82;100115.38;12101675;19;2004197;-81
2022/05/19 01:52:10;;;;;;;5.05;2.55;;;;;;;17.87;64.72;100113.19;12179637;19;20468;-82
2022/05/19 01:56:31;;;;;;;7.00;2.45;;;;;;;17.82;64.78;100115.16;12179054;19;20031;-82
2022/05/19 02:00:34;;;;;;;9.35;3.80;;;;;;;17.77;65.12;100110.47;12204653;19;20097;-81
2022/05/19 02:05:16;;;;;;;6.28;3.10;;;;;;;17.73;64.68;100109.38;12173150;19;20031;-83
2022/05/19 02:09:31;;;;;;;3.40;2.50;;;;;;;17.70;64.39;100110.78;12198332;19;20027;-82
2022/05/19 02:13:33;;;;;;;5.45;2.53;;;;;;;17.69;63.79;100111.88;12183375;19;20011;-83
2022/05/19 02:17:35;;;;;;;4.10;2.53;;;;;;;17.66;63.81;100115.25;12190571;19;20090;-84
2022/05/19 02:21:37;;;;;;;4.30;2.17;;;;;;;17.62;63.46;100118.94;12209426;19;20263;-82
2022/05/19 02:25:45;;;;;;;5.28;2.38;;;;;;;17.57;63.60;100122.56;12182557;19;20002;-82
2022/05/19 02:29:49;;;;;;;5.15;2.20;;;;;;;17.53;63.46;100115.91;12195814;19;20030;-83
2022/05/19 02:33:50;;;;;;;3.75;2.35;;;;;;;17.48;63.43;100115.94;12178306;19;20081;-81
2022/05/19 02:37:54;;;;;;;6.28;1.90;;;;;;;17.45;63.41;100106.22;12207647;19;20034;-81
2022/05/19 02:41:56;;;;;;;3.33;2.20;;;;;;;17.43;63.38;100102.91;12188680;19;19999;-82
2022/05/19 02:45:58;;;;;;;3.70;2.25;;;;;;;17.43;62.87;100100.13;12176148;19;20006;-82
2022/05/19 02:49:59;;;;;;;5.68;2.83;;;;;;;17.44;62.95;100106.50;12200320;19;20027;-82
2022/05/19 02:54:06;;;;;;;7.03;2.30;;;;;;;17.42;63.17;100098.44;12195221;19;20043;-82
2022/05/19 02:58:09;;;;;;;5.75;2.40;;;;;;;17.39;63.53;100093.44;12183356;19;20021;-82
2022/05/19 03:07:10;;;;;;;3.03;2.63;;;;;;;17.33;63.66;100082.63;12179799;19;20007;-82
2022/05/19 03:11:12;;;;;;;3.67;2.17;;;;;;;17.29;63.37;100080.41;12197937;19;20070;-82
2022/05/19 03:15:41;;;;;;;4.30;2.42;;;;;;;17.25;63.33;100087.69;12197870;19;20026;-83
2022/05/19 03:19:43;;;;;;;3.83;2.40;;;;;;;17.23;63.47;100089.09;12176520;19;20083;-82
2022/05/19 03:23:47;;;;;;;6.40;2.50;;;;;;;17.21;63.63;100075.44;12218041;19;20014;-85
2022/05/19 03:28:00;;;;;;;5.22;2.75;;;;;;;17.22;63.16;100065.13;12193276;19;20015;-84
2022/05/19 03:32:02;;;;;;;6.07;2.97;;;;;;;17.24;63.02;100068.47;12204857;19;20443;-85
2022/05/19 03:36:04;;;;;;;5.93;2.22;;;;;;;17.23;63.30;100059.28;12198229;19;20015;-83
2022/05/19 03:40:07;;;;;;;4.00;2.08;;;;;;;17.21;63.28;100061.50;12184206;19;20119;-84
2022/05/19 03:44:10;;;;;;;6.10;2.50;;;;;;;17.18;63.48;100064.06;12198138;19;20010;-83
2022/05/19 03:48:13;;;;;;;3.97;2.25;;;;;;;17.16;63.57;100055.16;12197780;19;20032;-83
2022/05/19 03:52:14;;;;;;;5.45;2.60;;;;;;;17.15;63.75;100059.06;12180754;19;20010;-84
2022/05/19 03:56:42;;;;;;;3.58;2.22;;;;;;;17.16;63.26;100069.06;12199455;19;20132;-85
2022/05/19 04:01:30;;;;;;;4.10;2.22;;;;;;;17.17;63.17;100070.75;12140351;19;20019;-84
2022/05/19 04:06:36;;;;;;;4.38;2.30;;;;;;;17.14;63.47;100069.38;12191494;19;20111;-84
2022/05/19 04:10:42;;;;;;;5.10;2.58;;;;;;;17.08;63.69;100081.66;12183714;19;20011;-84
2022/05/19 04:14:44;;;;;;;4.32;2.75;;;;;;;16.98;64.19;100082.50;12207117;19;20007;-83
2022/05/19 04:18:46;;;;;;;5.65;2.40;;;;;;;16.96;64.83;100082.00;12201584;19;20591;-84
2022/05/19 04:22:48;;;;;;;4.15;2.47;;;;;;;16.94;66.12;100078.66;12207613;19;20059;-83
2022/05/19 04:26:49;;;;;;;4.32;2.28;;;;;;;16.94;66.81;100077.81;12210873;19;20038;-84
2022/05/19 04:30:51;;;;;;;6.47;2.38;;;;;;;16.93;67.63;100073.38;12188287;19;20091;-82
2022/05/19 04:59:41;;;;;;;4.28;2.40;;;;;;;17.29;68.67;100102.69;12188789;19;20029;-85
2022/05/19 05:03:46;;;;;;;4.65;2.53;;;;;;;17.41;67.99;100112.66;12208520;19;20049;-82
2022/05/19 05:07:48;;;;;;;4.07;2.10;;;;;;;17.49;67.84;100124.03;12214725;19;20038;-83
2022/05/19 05:11:49;;;;;;;4.72;2.50;;;;;;;17.60;67.93;100127.56;12214039;19;20511;-83
2022/05/19 05:15:51;;;;;;;3.17;2.50;;;;;;;17.66;68.31;100129.19;12189547;19;20689;-83
2022/05/19 05:19:53;;;;;;;3.30;2.20;;;;;;;17.73;68.11;100129.72;12212468;19;20129;-82
2022/05/19 05:23:56;;;;;;;2.97;2.10;;;;;;;17.81;67.91;100127.47;12202640;19;20021;-83
2022/05/19 05:28:15;;;;;;;5.18;2.58;;;;;;;17.90;67.19;100122.91;12187405;19;20010;-82
2022/05/19 05:32:16;;;;;;;4.13;2.20;;;;;;;17.97;67.50;100121.47;12210278;19;20062;-83
2022/05/19 05:36:19;;;;;;;;;;;;;;;18.00;67.81;100122.84;12200126;19;20035;-82
2022/05/19 05:40:21;;;;;;;3.40;2.00;;;;;;;18.07;67.32;100133.66;12180352;19;19970;-83
2022/05/19 05:44:26;;;;;;;4.68;2.00;;;;;;;18.13;66.99;100136.13;12203103;19;20007;-83
2022/05/19 05:48:28;;;;;;;3.58;2.28;;;;;;;18.18;67.38;100144.44;12210511;19;20445;-83
2022/05/19 05:52:30;;;;;;;5.32;2.00;;;;;;;18.22;68.24;100139.09;12195216;19;20010;-82
2022/05/19 05:56:32;;;;;;;5.47;2.40;;;;;;;18.26;68.91;100147.72;12204789;19;20334;-83
2022/05/19 06:00:34;;;;;;;6.10;3.13;;;;;;;18.28;69.27;100154.66;12208073;19;20011;-83
2022/05/19 06:04:36;;;;;;;4.32;1.92;;;;;;;18.32;69.40;100160.50;12196953;19;20010;-83
2022/05/19 06:08:38;;;;;;;8.15;2.63;;;;;;;18.35;68.67;100146.81;12205346;19;20389;-83
2022/05/19 06:12:41;;;;;;;4.32;2.30;;;;;;;18.50;68.34;100164.50;12208792;19;20070;-83
2022/05/19 06:16:44;;;;;;;3.70;2.03;;;;;;;18.61;68.03;100155.75;12185544;19;20074;-83
2022/05/19 06:20:45;;;;;;;3.85;2.17;;;;;;;18.72;67.64;100148.09;12201611;19;20010;-83
2022/05/19 06:24:48;;;;;;;3.42;2.22;;;;;;;18.88;67.94;100148.78;12194495;19;20809;-84
2022/05/19 06:28:49;;;;;;;5.00;2.42;;;;;;;19.00;67.56;100154.78;12211003;19;20074;-83
2022/05/19 06:32:51;;;;;;;2.65;1.83;;;;;;;19.19;66.93;100154.00;12210047;19;20024;-83
2022/05/19 06:36:53;;;;;;;3.83;2.28;;;;;;;19.37;65.77;100147.63;12181312;19;20006;-83
2022/05/19 06:42:00;;;;;;;4.70;2.30;;;;;;;19.56;65.52;100156.84;12201801;19;20026;-83
2022/05/19 06:45:20;;;;;;;3.58;2.33;;;;;;;19.82;64.20;100158.47;12189782;19;20279;-84
2022/05/19 06:49:22;;;;;;;6.93;2.50;;;;;;;20.06;63.34;100149.97;12177963;19;20010;-83
2022/05/19 06:53:34;;;;;;;2.33;1.77;;;;;;;20.28;62.01;100150.13;12209064;19;20026;-85
2022/05/19 06:57:42;;;;;;;4.43;2.25;;;;;;;20.47;61.23;100148.13;12214449;19;20010;-84
2022/05/19 07:02:19;;;;;;;4.50;2.53;;;;;;;20.73;60.80;100153.28;12193772;19;20513;-83
2022/05/19 07:32:55;;;;;;;3.83;2.42;;;;;;;23.12;51.32;100162.78;12066332;19;2004389;-82
2022/05/19 07:38:03;;;;;;;11.18;2.78;;;;;;;23.50;49.51;100167.00;12172091;19;20014;-82
2022/05/19 07:47:41;;;;;;;3.97;2.30;;;;;;;24.30;48.07;100133.75;12055723;19;2004604;-81
2022/05/19 07:53:02;;;;;;;4.75;2.25;;;;;;;24.53;49.30;100135.25;12173545;19;20046;-81
2022/05/19 07:57:15;;;;;;;6.03;1.92;;;;;;;24.74;47.80;100131.69;12206417;19;20023;-82
2022/05/19 08:01:19;;;;;;;6.65;2.10;;;;;;;24.86;46.51;100129.00;12191680;19;20027;-82
2022/05/19 08:05:23;;;;;;;5.35;2.10;;;;;;;25.14;46.84;100126.56;12218557;19;20006;-81
2022/05/19 08:18:58;;;;;;;3.85;2.25;;;;;;;25.81;44.07;100102.19;12192506;19;20414;-81
2022/05/19 08:23:11;;;;;;;3.42;2.17;;;;;;;25.74;41.70;100112.41;12205612;19;20038;-81
2022/05/19 08:27:22;;;;;;;7.40;2.28;;;;;;;25.99;42.88;100110.53;12211966;19;20472;-80
2022/05/19 08:31:25;;;;;;;3.60;1.80;;;;;;;26.02;42.02;100113.50;12189210;19;20010;-81
2022/05/19 08:35:29;;;;;;;5.30;2.30;;;;;;;26.18;41.84;100127.81;12213770;19;21081;-82
2022/05/19 08:39:31;;;;;;;3.90;2.70;;;;;;;26.22;41.86;100128.75;12215561;19;20027;-81
2022/05/19 08:43:44;;;;;;;5.55;3.13;;;;;;;26.12;41.70;100129.22;12189433;19;20007;-82
2022/05/19 08:47:49;;;;;;;4.15;2.03;;;;;;;26.15;42.32;100128.50;12208754;19;20015;-82
2022/05/19 08:52:04;;;;;;;3.05;2.00;;;;;;;26.37;43.22;100125.28;12189592;19;20077;-80
2022/05/19 08:56:31;;;;;;;4.50;2.38;;;;;;;26.58;40.64;100130.06;12215149;19;20018;-81
2022/05/19 09:00:44;;;;;;;6.78;2.78;;;;;;;26.79;41.91;100127.16;12208724;19;20022;-81
2022/05/19 09:04:57;;;;;;;6.78;2.97;;;;;;;27.01;41.25;100129.56;12189658;19;20014;-82
2022/05/19 09:09:06;;;;;;;7.47;3.10;;;;;;;27.29;39.51;100131.69;12207894;19;20031;-81
2022/05/19 09:13:23;;;;;;;4.95;2.80;;;;;;;27.42;39.69;100129.66;12181828;19;20415;-81
2022/05/19 09:17:31;;;;;;;7.00;2.95;;;;;;;27.44;39.82;100124.47;12209923;19;20006;-80
2022/05/19 09:21:38;;;;;;;5.70;2.30;;;;;;;27.53;39.72;100122.34;12211245;19;20022;-80
2022/05/19 09:25:46;;;;;;;4.88;2.63;;;;;;;27.59;39.22;100122.91;12178207;19;20010;-80
2022/05/19 09:29:54;;;;;;;8.27;4.00;;;;;;;27.81;39.78;100122.44;12207105;19;20030;-81
2022/05/19 09:33:56;;;;;;;6.38;2.75;;;;;;;27.99;37.90;100114.47;12184483;19;20363;-81
2022/05/19 09:38:17;;;;;;;4.47;2.83;;;;;;;28.24;37.17;100114.34;12212813;19;20028;-81
2022/05/19 09:42:34;;;;;;;7.30;3.67;;;;;;;28.45;37.44;100123.47;12206976;19;20011;-80
2022/05/19 09:46:47;;;;;;;4.63;2.55;;;;;;;28.58;37.46;100119.38;12185904;19;20030;-81
2022/05/19 09:50:50;;;;;;;4.85;2.63;;;;;;;28.93;36.97;100112.16;12206926;19;20082;-82
2022/05/19 09:54:58;;;;;;;6.32;3.40;;;;;;;29.22;35.87;100106.03;12183175;19;20048;-81
2022/05/19 09:59:07;;;;;;;6.20;3.60;;;;;;;29.52;35.93;100108.34;12209610;19;20159;-80
2022/05/19 10:03:12;;;;;;;5.50;2.70;;;;;;;29.50;35.24;100108.69;12197697;19;20002;-80
2022/05/19 10:07:24;;;;;;;6.05;2.97;;;;;;;29.48;35.11;100105.44;12178622;19;20019;-81
2022/05/19 10:11:30;;;;;;;6.75;2.65;;;;;;;29.53;34.72;100096.59;12196587;19;20002;-81
2022/05/19 10:15:57;;;;;;;9.32;3.15;;;;;;;29.74;34.14;100098.31;12190929;19;20022;-81
2022/05/19 10:20:18;;;;;;;8.07;2.50;;;;;;;29.93;34.01;100078.44;12175375;19;20488;-81
2022/05/19 10:24:55;;;;;;;7.38;3.40;;;;;;;30.10;33.83;100067.78;12200172;19;20010;-80
2022/05/19 10:34:20;;;;;;;4.18;2.53;;;;;;;30.69;31.61;100062.81;12178111;19;20026;-80
2022/05/19 10:38:46;;;;;;;11.00;3.00;;;;;;;30.98;31.75;100064.16;12206823;19;20010;-81
2022/05/19 10:43:41;;;;;;;6.00;2.85;;;;;;;31.13;31.47;100059.50;12183912;19;20087;-81
2022/05/19 10:47:55;;;;;;;6.05;2.80;;;;;;;31.24;31.60;100047.06;12196838;19;20492;-80
2022/05/19 10:52:11;;;;;;;4.32;2.70;;;;;;;31.42;31.79;100046.53;12181957;19;20110;-81
2022/05/19 10:56:33;;;;;;;8.65;3.00;;;;;;;31.92;31.45;100038.69;12199033;19;20018;-81
2022/05/19 11:00:50;;;;;;;6.93;2.97;;;;;;;32.62;30.70;100029.22;12198763;19;20533;-81
2022/05/19 11:05:15;;;;;;;4.90;3.07;;;;;;;33.18;30.16;100032.94;12186754;19;20010;-81
2022/05/19 11:09:55;;;;;;;8.82;3.30;;;;;;;33.68;29.25;100029.56;12207235;19;20035;-82
2022/05/19 11:14:10;;;;;;;7.72;3.38;;;;;;;33.94;28.50;100020.66;12168902;19;20010;-81
2022/05/19 11:18:30;;;;;;;8.57;3.58;;;;;;;34.20;28.19;100012.97;12195144;19;20021;-81
2022/05/19 11:22:36;;;;;;;5.90;3.25;;;;;;;34.43;28.67;100004.84;12185146;19;20666;-80
2022/05/19 11:26:45;;;;;;;5.25;3.65;;;;;;;34.35;27.96;100000.31;12196430;19;20010;-80
2022/05/19 11:30:53;;;;;;;15.10;4.32;;;;;;;34.24;28.29;100003.19;12192291;19;20080;-80
2022/05/19 11:35:19;;;;;;;8.52;3.95;;;;;;;34.18;28.63;99998.25;12199769;19;20017;-81
2022/05/19 11:39:30;;;;;;;12.75;4.80;;;;;;;34.13;29.36;99985.19;12202324;19;20353;-80
2022/05/19 11:43:47;;;;;;;4.35;3.72;;;;;;;34.37;28.94;99966.44;12173243;19;20099;-80
2022/05/19 11:57:12;;;;;;;8.25;4.22;;;;;;;34.90;28.06;99967.66;12192074;19;20011;-80
2022/05/19 12:01:22;;;;;;;6.40;3.92;;;;;;;34.95;28.04;99972.94;12171673;19;20024;-81
2022/05/19 12:05:58;;;;;;;10.23;4.32;;;;;;;35.07;27.81;99980.31;12201636;19;20091;-81
2022/05/19 12:10:00;;;;;;;6.03;4.13;;;;;;;34.00;28.84;99981.88;12181948;19;20622;-81
2022/05/19 12:14:11;;;;;;;8.55;4.70;;;;;;;33.64;29.79;99983.78;12200891;19;20523;-81
2022/05/19 12:18:27;;;;;;;6.93;3.88;;;;;;;33.86;29.91;99979.00;12203597;19;20032;-82
2022/05/19 12:22:37;;;;;;;6.85;4.30;;;;;;;34.18;29.90;99976.22;12182714;19;20409;-80
2022/05/19 12:27:13;;;;;;;6.57;4.22;;;;;;;34.30;29.76;99983.59;12190374;19;20026;-81
2022/05/19 12:35:54;;;;;;;7.30;4.38;;;;;;;33.83;30.70;99971.22;12205086;19;20038;-81
2022/05/19 12:40:19;;;;;;;6.78;4.78;;;;;;;33.95;30.75;99967.97;12192205;19;20038;-80
2022/05/19 12:44:32;;;;;;;6.88;5.00;;;;;;;34.20;30.87;99961.50;12213808;19;20377;-81
2022/05/19 12:48:34;;;;;;;9.95;5.25;;;;;;;35.32;30.11;99957.31;12203572;19;20014;-79
2022/05/19 12:53:03;;;;;;;8.57;5.40;;;;;;;36.69;27.70;99944.59;12186212;19;20555;-81
2022/05/19 12:57:10;;;;;;;6.75;4.43;;;;;;;37.12;27.37;99941.28;12205468;19;20030;-80
2022/05/19 13:01:36;;;;;;;6.95;4.47;;;;;;;37.39;26.68;99938.50;12186604;19;20010;-81
2022/05/19 13:05:46;;;;;;;6.60;4.90;;;;;;;37.58;26.21;99939.94;12212250;19;20014;-81
2022/05/19 13:09:55;;;;;;;8.45;4.30;;;;;;;38.15;25.56;99932.53;12189877;19;20007;-80
2022/05/19 13:14:12;;;;;;;13.25;5.45;;;;;;;39.19;24.82;99927.81;12206339;19;20006;-81
2022/05/19 13:18:15;;;;;;;6.45;4.68;;;;;;;39.65;24.48;99923.97;12194637;19;20009;-81
2022/05/19 13:22:24;;;;;;;7.85;4.82;;;;;;;40.19;23.27;99916.16;12180259;19;20022;-81
2022/05/19 13:26:29;;;;;;;8.27;4.80;;;;;;;40.59;23.08;99915.94;12197269;19;20010;-81
2022/05/19 13:30:51;;;;;;;9.00;4.53;;;;;;;40.89;22.42;99901.09;12200824;19;20434;-81
2022/05/19 13:34:54;;;;;;;8.07;4.00;;;;;;;41.50;22.38;99893.59;12183510;19;20481;-81
2022/05/19 13:39:14;;;;;;;8.38;4.70;;;;;;;42.23;21.28;99890.81;12204970;19;20020;-82
2022/05/19 13:43:30;;;;;;;8.85;4.40;;;;;;;42.75;20.63;99880.78;12185530;19;20028;-82
2022/05/19 13:47:34;;;;;;;17.08;6.15;;;;;;;42.75;20.82;99882.88;12199960;19;20035;-82
2022/05/19 13:51:41;;;;;;;6.80;4.22;;;;;;;42.91;20.53;99873.97;12208345;19;20468;-82
2022/05/19 13:55:53;;;;;;;7.35;4.60;;;;;;;43.19;20.53;99868.38;12179742;19;20369;-83
2022/05/19 14:00:07;;;;;;;6.57;4.40;;;;;;;42.89;20.03;99867.00;12200289;19;20086;-83
2022/05/19 14:04:19;;;;;;;7.55;3.92;;;;;;;43.46;19.67;99859.88;12187647;19;20034;-83
2022/05/19 14:08:23;;;;;;;10.15;6.07;;;;;;;44.05;19.17;99857.06;12203814;19;20078;-82
2022/05/19 14:12:47;;;;;;;7.80;4.65;;;;;;;43.90;19.16;99851.03;12211707;19;20011;-80
2022/05/19 14:16:50;;;;;;;7.72;4.70;;;;;;;43.83;19.56;99838.91;12193711;19;20471;-82
2022/05/19 14:21:08;;;;;;;9.32;4.45;;;;;;;43.80;19.17;99837.78;12206305;19;20014;-83
2022/05/19 14:25:12;;;;;;;5.80;4.85;;;;;;;43.88;19.34;99833.28;12186691;19;20011;-83
2022/05/19 14:29:21;;;;;;;7.28;4.30;;;;;;;43.95;19.38;99829.31;12208615;19;20074;-83
2022/05/19 14:33:38;;;;;;;7.93;4.75;;;;;;;43.36;19.67;99816.78;12200272;19;20006;-83
2022/05/19 14:37:43;;;;;;;6.63;4.60;;;;;;;43.55;19.70;99817.69;12174689;19;20428;-82
2022/05/19 14:46:10;;;;;;;6.90;4.93;;;;;;;41.05;21.57;99833.78;12177809;19;20033;-81
2022/05/19 14:50:20;;;;;;;20.30;5.63;;;;;;;39.50;23.13;99833.25;12209586;19;20026;-80
2022/05/19 14:54:24;;;;;;;8.87;4.97;;;;;;;38.32;24.53;99829.91;12199720;19;20066;-82
2022/05/19 14:58:45;;;;;;;8.68;4.95;;;;;;;37.61;25.28;99829.00;12174154;19;20281;-81
2022/05/19 15:02:47;;;;;;;7.78;4.70;;;;;;;37.65;25.46;99829.75;12202246;19;20106;-81
2022/05/19 15:06:49;;;;;;;9.75;4.85;;;;;;;37.57;25.49;99834.81;12170206;19;20010;-80
2022/05/19 15:10:51;;;;;;;9.65;4.55;;;;;;;37.84;25.13;99817.53;12207739;19;20074;-80
2022/05/19 15:14:52;;;;;;;9.10;3.97;;;;;;;38.86;23.44;99814.50;12203402;19;20010;-81
2022/05/19 15:18:55;;;;;;;8.40;4.47;;;;;;;38.58;23.81;99818.72;12180207;19;20011;-81
2022/05/19 15:22:57;;;;;;;9.00;3.83;;;;;;;37.57;24.60;99820.44;12206098;19;20101;-81
2022/05/19 15:27:01;;;;;;;7.93;4.20;;;;;;;36.23;25.43;99838.81;12208031;19;20452;-80
2022/05/19 15:31:03;;;;;;;10.45;4.07;;;;;;;35.26;26.59;99850.94;12182495;19;20546;-81
2022/05/19 15:35:05;;;;;;;11.00;4.28;;;;;;;34.12;27.93;99856.91;12213711;19;20010;-81
2022/05/19 15:39:14;;;;;;;9.32;4.47;;;;;;;33.53;28.44;99865.84;12206159;19;20025;-81
2022/05/19 15:43:16;;;;;;;10.00;4.45;;;;;;;32.95;29.42;99864.75;12186372;19;20031;-80
2022/05/19 15:47:25;;;;;;;11.60;4.32;;;;;;;32.44;30.44;99862.78;12204586;19;20010;-82
2022/05/19 15:51:28;;;;;;;8.43;4.28;;;;;;;32.12;30.67;99857.66;12208266;19;20017;-83
2022/05/19 15:55:29;;;;;;;;;;;;;;;31.75;31.54;99854.88;12173551;19;20467;-81
2022/05/19 15:59:31;;;;;;;6.68;4.07;;;;;;;31.39;32.77;99865.91;12193298;19;19915;-81
2022/05/19 16:03:35;;;;;;;7.30;4.13;;;;;;;30.99;33.97;99883.66;12203812;19;20464;-78
2022/05/19 16:07:38;;;;;;;7.35;4.03;;;;;;;30.63;35.02;99891.66;12189494;19;20776;-81
2022/05/19 16:11:41;;;;;;;10.48;4.25;;;;;;;30.25;36.28;99902.03;12215833;19;20018;-80
2022/05/19 16:15:46;;;;;;;9.85;4.05;;;;;;;30.01;36.89;99910.94;12206255;19;20381;-78
2022/05/19 16:19:50;;;;;;;8.85;3.95;;;;;;;29.71;37.70;99908.78;12218561;19;20010;-79
2022/05/19 16:24:04;;;;;;;12.75;4.05;;;;;;;29.45;38.75;99909.47;12214039;19;20037;-81
2022/05/19 16:28:29;;;;;;;8.73;4.05;;;;;;;29.16;39.38;99911.72;12191345;19;20025;-81
2022/05/19 16:32:32;;;;;;;9.25;4.18;;;;;;;28.99;39.72;99912.13;12201744;19;20079;-79
2022/05/19 16:36:36;;;;;;;8.93;4.00;;;;;;;28.85;40.03;99924.81;12206362;19;20182;-79
2022/05/19 16:40:49;;;;;;;7.82;3.90;;;;;;;28.66;40.93;99923.94;12178418;19;20006;-81
2022/05/19 16:44:51;;;;;;;9.55;4.50;;;;;;;28.53;41.89;99941.06;12214443;19;20391;-81
2022/05/19 16:48:54;;;;;;;;;;;;;;;28.17;42.53;100013.00;12185860;19;20011;-79
2022/05/19 16:52:59;;;;;;;94.78;11.70;;;;;;;27.17;48.75;100022.19;12215116;19;19986;-81
2022/05/19 17:01:21;;;;;;;12.50;4.88;;;;;;;20.60;90.41;99972.13;12187237;19;20028;-81
2022/05/19 17:05:23;;;;;;;19.13;7.10;;;;;;;19.55;95.15;100014.59;12222518;19;20018;-81
2022/05/19 17:09:26;;;;;;;18.25;6.97;;;;;;;18.99;100.00;100047.00;12212613;19;20027;-82
2022/05/19 17:13:31;;;;;;;18.73;7.30;;;;;;;18.81;100.00;100081.31;12191918;19;20010;-82
2022/05/19 17:17:33;;;;;;;19.17;7.00;;;;;;;18.78;100.00;100121.00;12214073;19;20007;-79
2022/05/19 17:21:36;;;;;;;22.35;8.63;;;;;;;18.78;100.00;100134.94;12219811;19;20007;-81
2022/05/19 17:25:41;;;;;;;14.90;8.15;;;;;;;18.77;100.00;100119.31;12198776;19;20573;-81
2022/05/19 17:29:43;;;;;;;18.30;7.05;;;;;;;18.72;100.00;100108.19;12220189;19;20011;-80
2022/05/19 17:33:45;;;;;;;10.50;4.90;;;;;;;18.58;100.00;100117.25;12213794;19;20007;-80
2022/05/19 17:37:48;;;;;;;10.07;4.55;;;;;;;18.47;100.00;100071.06;12195652;19;20540;-82
2022/05/19 17:41:49;;;;;;;;;;;;;;;18.41;100.00;100061.94;12222152;19;20011;-80
2022/05/19 17:45:53;;;;;;;18.00;8.38;;;;;;;18.43;100.00;100054.06;12198367;19;19911;-80
2022/05/19 17:49:54;;;;;;;18.88;9.27;;;;;;;18.51;100.00;100047.03;12227826;19;20615;-85
2022/05/19 17:53:56;;;;;;;21.95;9.20;;;;;;;18.57;100.00;100042.22;12255534;19;20022;-88
2022/05/19 17:58:00;;;;;;;25.13;9.82;;;;;;;18.60;100.00;100058.38;12247762;19;20014;-90
2022/05/19 18:02:01;;;;;;;17.33;9.02;;;;;;;18.64;100.00;100077.00;12262187;19;20010;-83
2022/05/19 18:06:04;;;;;;;13.50;7.93;;;;;;;18.62;100.00;100092.38;12253630;19;20465;-79
2022/05/19 18:10:07;;;;;;;22.38;9.30;;;;;;;18.73;100.00;100093.09;12205106;19;20047;-83
2022/05/19 18:14:09;;;;;;;26.58;9.90;;;;;;;18.76;100.00;100098.13;12246024;19;20014;-87
2022/05/19 18:18:21;;;;;;;25.05;10.48;;;;;;;18.74;100.00;100108.75;12252616;19;20014;-84
2022/05/19 18:22:22;;;;;;;18.83;8.05;;;;;;;18.74;100.00;100119.91;12243142;19;20039;-85
2022/05/19 18:26:27;;;;;;;15.93;7.65;;;;;;;18.59;100.00;100132.91;12256161;19;20007;-84
2022/05/19 18:30:29;;;;;;;17.92;8.95;;;;;;;18.59;100.00;100124.53;12246387;19;20420;-77
2022/05/19 18:34:31;;;;;;;19.58;7.90;;;;;;;18.61;100.00;100124.22;12203458;19;20121;-81
2022/05/19 18:38:34;;;;;;;18.05;8.85;;;;;;;18.61;100.00;100130.63;12212768;19;20168;-80
2022/05/19 18:46:56;;;;;;;14.65;7.88;;;;;;;18.61;100.00;100135.38;12190463;19;19937;-79
2022/05/19 18:50:57;;;;;;;17.73;8.15;;;;;;;18.44;100.00;100144.19;12203439;19;20372;-81
2022/05/19 18:55:00;;;;;;;15.23;8.27;;;;;;;18.31;100.00;100139.31;12180428;19;20039;-79
2022/05/19 18:59:03;;;;;;;;;;;;;;;18.16;100.00;100154.22;12208954;19;20007;-80
2022/05/19 19:03:05;;;;;;;9.30;5.47;;;;;;;18.02;100.00;100150.44;12210527;19;19942;-79
2022/05/19 19:07:11;;;;;;;16.35;7.65;;;;;;;17.90;100.00;100153.59;12180492;19;20031;-78
2022/05/19 19:11:13;;;;;;;12.68;5.15;;;;;;;17.77;100.00;100150.34;12200774;19;20403;-80
2022/05/19 19:15:15;;;;;;;15.80;6.43;;;;;;;17.76;100.00;100167.34;12196688;19;20531;-78
2022/05/19 19:19:17;;;;;;;12.00;6.15;;;;;;;17.72;100.00;100164.25;12185344;19;20014;-81
2022/05/19 19:23:19;;;;;;;11.60;5.73;;;;;;;17.68;100.00;100170.72;12227066;19;20006;-83
2022/05/19 19:27:22;;;;;;;15.35;6.80;;;;;;;17.64;100.00;100166.81;12210837;19;20062;-77
2022/05/19 19:31:25;;;;;;;12.80;7.13;;;;;;;17.63;100.00;100179.94;12177838;19;20010;-79
2022/05/19 19:35:27;;;;;;;16.77;8.52;;;;;;;17.71;100.00;100189.66;12197368;19;20078;-80
2022/05/19 19:39:29;;;;;;;17.80;9.27;;;;;;;17.80;100.00;100192.69;12208304;19;20069;-77
2022/05/19 19:43:31;;;;;;;24.15;11.80;;;;;;;17.85;100.00;100175.94;12191484;19;20070;-77
2022/05/19 19:47:34;;;;;;;18.55;9.90;;;;;;;17.87;100.00;100165.31;12214794;19;20614;-77
2022/05/19 19:55:59;;;;;;;19.48;10.10;;;;;;;17.95;100.00;100167.50;12190528;19;20046;-78
2022/05/19 20:00:03;;;;;;;17.80;9.10;;;;;;;17.98;100.00;100172.50;12219251;19;20077;-79
2022/05/19 20:04:09;;;;;;;18.70;8.88;;;;;;;17.98;100.00;100172.50;12197876;19;20038;-77
2022/05/19 20:08:11;;;;;;;16.00;8.55;;;;;;;17.98;100.00;100175.28;12211866;19;20094;-79
2022/05/19 20:12:15;;;;;;;18.93;9.57;;;;;;;17.97;100.00;100170.84;12214259;19;20092;-81
2022/05/19 20:16:17;;;;;;;21.90;12.48;;;;;;;17.91;100.00;100160.84;12193494;19;20006;-81
2022/05/19 20:20:20;;;;;;;20.15;11.75;;;;;;;17.89;100.00;100158.34;12220862;19;20011;-80
2022/05/19 20:24:22;;;;;;;20.23;9.60;;;;;;;17.85;100.00;100148.06;12215424;19;20011;-78
2022/05/19 20:28:24;;;;;;;21.15;10.52;;;;;;;17.81;100.00;100153.38;12196904;19;20073;-78
2022/05/19 20:32:27;;;;;;;20.02;9.73;;;;;;;17.84;100.00;100160.31;12214447;19;20756;-77
2022/05/19 20:36:30;;;;;;;16.52;9.75;;;;;;;17.85;100.00;100175.94;12206829;19;20070;-77
2022/05/19 20:40:31;;;;;;;23.47;10.03;;;;;;;17.87;100.00;100184.84;12181043;19;20475;-77
2022/05/19 20:44:33;;;;;;;20.08;10.30;;;;;;;17.88;100.00;100203.25;12212301;19;20026;-77
2022/05/19 20:48:36;;;;;;;22.90;9.60;;;;;;;17.84;100.00;100214.13;12204173;19;20089;-78
2022/05/19 20:52:38;;;;;;;19.80;9.80;;;;;;;17.81;100.00;100225.00;12182855;19;20007;-78
2022/05/19 20:56:40;;;;;;;18.07;8.90;;;;;;;17.78;100.00;100240.34;12204471;19;20469;-78
2022/05/19 21:00:42;;;;;;;21.45;8.88;;;;;;;17.79;100.00;100257.91;12206902;19;20092;-77
2022/05/19 21:04:44;;;;;;;15.75;8.65;;;;;;;17.75;100.00;100264.03;12182318;19;20006;-79
2022/05/19 21:08:46;;;;;;;19.77;9.20;;;;;;;17.72;100.00;100267.38;12211185;19;20017;-78